sensor_id;sensor_type;location;lat;lon;timestamp;pressure;altitude;pressure_sealevel;temperature;humidity
51460;BME280;37534;39.772;2.718;2022-07-05T00:00:36;101356.16;;;24.42;100.00
51460;BME280;37534;39.772;2.718;2022-07-05T00:03:02;101364.78;;;24.44;100.00
51460;BME280;37534;39.772;2.718;2022-07-05T00:05:27;101364.06;;;24.42;100.00
51460;BME280;37534;39.772;2.718;2022-07-05T00:07:53;101366.28;;;24.48;100.00
51460;BME280;37534;39.772;2.718;2022-07-05T00:10:18;101362.16;;;24.44;100.00
51460;BME280;37534;39.772;2.718;2022-07-05T00:12:44;101363.84;;;24.45;100.00
51460;BME280;37534;39.772;2.718;2022-07-05T00:15:10;101358.78;;;24.42;100.00
51460;BME280;37534;39.772;2.718;2022-07-05T00:17:35;101366.72;;;24.42;100.00
51460;BME280;37534;39.772;2.718;2022-07-05T00:20:01;101360.00;;;24.38;100.00
51460;BME280;37534;39.772;2.718;2022-07-05T00:22:28;101359.50;;;24.57;100.00
51460;BME280;37534;39.772;2.718;2022-07-05T00:24:53;101361.53;;;24.54;100.00
51460;BME280;37534;39.772;2.718;2022-07-05T00:27:19;101358.06;;;24.40;100.00
51460;BME280;37534;39.772;2.718;2022-07-05T00:29:44;101372.44;;;24.36;100.00
51460;BME280;37534;39.772;2.718;2022-07-05T00:32:10;101367.09;;;24.25;100.00
51460;BME280;37534;39.772;2.718;2022-07-05T00:34:36;101372.38;;;24.25;100.00
51460;BME280;37534;39.772;2.718;2022-07-05T00:37:02;101374.25;;;24.36;100.00
51460;BME280;37534;39.772;2.718;2022-07-05T00:39:27;101372.16;;;24.28;100.00
51460;BME280;37534;39.772;2.718;2022-07-05T00:41:53;101390.00;;;24.24;100.00
51460;BME280;37534;39.772;2.718;2022-07-05T00:44:28;101378.59;;;24.13;100.00
51460;BME280;37534;39.772;2.718;2022-07-05T00:46:55;101376.59;;;24.03;100.00
51460;BME280;37534;39.772;2.718;2022-07-05T00:49:20;101394.41;;;24.13;100.00
51460;BME280;37534;39.772;2.718;2022-07-05T00:51:46;101403.47;;;24.08;100.00
51460;BME280;37534;39.772;2.718;2022-07-05T00:54:11;101409.19;;;24.02;100.00
51460;BME280;37534;39.772;2.718;2022-07-05T00:56:37;101429.22;;;24.29;100.00
51460;BME280;37534;39.772;2.718;2022-07-05T00:59:02;101433.00;;;24.38;100.00
51460;BME280;37534;39.772;2.718;2022-07-05T01:01:28;101420.44;;;24.41;100.00
51460;BME280;37534;39.772;2.718;2022-07-05T01:03:53;101433.81;;;24.38;100.00
51460;BME280;37534;39.772;2.718;2022-07-05T01:06:19;101453.38;;;24.23;100.00
51460;BME280;37534;39.772;2.718;2022-07-05T01:08:46;101443.50;;;24.14;100.00
51460;BME280;37534;39.772;2.718;2022-07-05T01:11:11;101450.47;;;24.15;100.00
51460;BME280;37534;39.772;2.718;2022-07-05T01:13:38;101457.00;;;24.22;100.00
51460;BME280;37534;39.772;2.718;2022-07-05T01:16:04;101437.81;;;24.20;100.00
51460;BME280;37534;39.772;2.718;2022-07-05T01:18:31;101447.91;;;24.26;100.00
51460;BME280;37534;39.772;2.718;2022-07-05T01:20:58;101452.88;;;24.18;100.00
51460;BME280;37534;39.772;2.718;2022-07-05T01:23:26;101448.78;;;24.14;100.00
51460;BME280;37534;39.772;2.718;2022-07-05T01:25:52;101438.91;;;24.04;100.00
51460;BME280;37534;39.772;2.718;2022-07-05T01:28:19;101446.25;;;24.12;100.00
51460;BME280;37534;39.772;2.718;2022-07-05T01:30:46;101461.13;;;24.13;100.00
51460;BME280;37534;39.772;2.718;2022-07-05T01:33:11;101430.16;;;24.04;100.00
51460;BME280;37534;39.772;2.718;2022-07-05T01:35:37;101446.16;;;24.14;100.00
51460;BME280;37534;39.772;2.718;2022-07-05T01:38:03;101443.84;;;24.09;100.00
51460;BME280;37534;39.772;2.718;2022-07-05T01:40:29;101465.56;;;24.13;100.00
51460;BME280;37534;39.772;2.718;2022-07-05T01:42:54;101445.53;;;24.10;100.00
51460;BME280;37534;39.772;2.718;2022-07-05T01:45:20;101432.34;;;24.10;100.00
51460;BME280;37534;39.772;2.718;2022-07-05T01:48:08;101443.50;;;24.14;100.00
51460;BME280;37534;39.772;2.718;2022-07-05T01:50:38;101437.31;;;24.15;100.00
51460;BME280;37534;39.772;2.718;2022-07-05T01:53:08;101438.25;;;24.14;100.00
51460;BME280;37534;39.772;2.718;2022-07-05T01:55:35;101431.50;;;24.09;100.00
51460;BME280;37534;39.772;2.718;2022-07-05T01:58:01;101431.72;;;24.06;100.00
51460;BME280;37534;39.772;2.718;2022-07-05T02:00:27;101438.34;;;24.12;100.00
51460;BME280;37534;39.772;2.718;2022-07-05T02:02:53;101428.47;;;24.03;100.00
51460;BME280;37534;39.772;2.718;2022-07-05T02:05:20;101428.16;;;24.07;100.00
51460;BME280;37534;39.772;2.718;2022-07-05T02:07:49;101421.41;;;24.03;100.00
51460;BME280;37534;39.772;2.718;2022-07-05T02:10:15;101423.72;;;24.08;100.00
51460;BME280;37534;39.772;2.718;2022-07-05T02:12:41;101418.38;;;24.21;100.00
51460;BME280;37534;39.772;2.718;2022-07-05T02:15:07;101438.97;;;24.16;100.00
51460;BME280;37534;39.772;2.718;2022-07-05T02:17:33;101440.09;;;24.00;100.00
51460;BME280;37534;39.772;2.718;2022-07-05T02:19:59;101443.97;;;23.95;100.00
51460;BME280;37534;39.772;2.718;2022-07-05T02:22:25;101440.00;;;23.89;100.00
51460;BME280;37534;39.772;2.718;2022-07-05T02:24:51;101437.47;;;23.87;100.00
51460;BME280;37534;39.772;2.718;2022-07-05T02:27:16;101452.91;;;24.05;100.00
51460;BME280;37534;39.772;2.718;2022-07-05T02:29:42;101456.63;;;24.02;100.00
51460;BME280;37534;39.772;2.718;2022-07-05T02:32:07;101441.47;;;23.93;100.00
51460;BME280;37534;39.772;2.718;2022-07-05T02:34:33;101441.88;;;23.74;100.00
51460;BME280;37534;39.772;2.718;2022-07-05T02:36:58;101430.00;;;23.68;100.00
51460;BME280;37534;39.772;2.718;2022-07-05T02:39:24;101450.97;;;23.70;100.00
51460;BME280;37534;39.772;2.718;2022-07-05T02:41:49;101436.13;;;23.56;100.00
51460;BME280;37534;39.772;2.718;2022-07-05T02:44:15;101451.59;;;23.73;100.00
51460;BME280;37534;39.772;2.718;2022-07-05T02:46:40;101441.47;;;23.67;100.00
51460;BME280;37534;39.772;2.718;2022-07-05T02:49:06;101454.13;;;23.62;100.00
51460;BME280;37534;39.772;2.718;2022-07-05T02:51:31;101466.16;;;23.66;100.00
51460;BME280;37534;39.772;2.718;2022-07-05T02:53:57;101456.75;;;23.62;100.00
51460;BME280;37534;39.772;2.718;2022-07-05T02:56:22;101451.69;;;23.59;100.00
51460;BME280;37534;39.772;2.718;2022-07-05T02:58:48;101439.16;;;23.50;100.00
51460;BME280;37534;39.772;2.718;2022-07-05T03:01:13;101437.78;;;23.57;100.00
51460;BME280;37534;39.772;2.718;2022-07-05T03:03:39;101430.53;;;23.48;100.00
51460;BME280;37534;39.772;2.718;2022-07-05T03:06:04;101447.16;;;23.48;100.00
51460;BME280;37534;39.772;2.718;2022-07-05T03:08:30;101437.59;;;23.47;100.00
51460;BME280;37534;39.772;2.718;2022-07-05T03:10:55;101433.91;;;23.50;100.00
51460;BME280;37534;39.772;2.718;2022-07-05T03:13:21;101441.50;;;23.54;100.00
51460;BME280;37534;39.772;2.718;2022-07-05T03:15:46;101456.75;;;23.62;100.00
51460;BME280;37534;39.772;2.718;2022-07-05T03:18:12;101453.38;;;23.60;100.00
51460;BME280;37534;39.772;2.718;2022-07-05T03:20:37;101462.03;;;23.62;100.00
51460;BME280;37534;39.772;2.718;2022-07-05T03:23:03;101465.09;;;23.56;100.00
51460;BME280;37534;39.772;2.718;2022-07-05T03:25:29;101465.28;;;23.53;100.00
51460;BME280;37534;39.772;2.718;2022-07-05T03:27:54;101483.09;;;23.62;100.00
51460;BME280;37534;39.772;2.718;2022-07-05T03:30:20;101480.91;;;23.82;100.00
51460;BME280;37534;39.772;2.718;2022-07-05T03:32:45;101475.94;;;23.90;100.00
51460;BME280;37534;39.772;2.718;2022-07-05T03:35:11;101483.66;;;23.93;100.00
51460;BME280;37534;39.772;2.718;2022-07-05T03:37:36;101480.25;;;23.78;100.00
51460;BME280;37534;39.772;2.718;2022-07-05T03:40:03;101499.00;;;23.61;100.00
51460;BME280;37534;39.772;2.718;2022-07-05T03:42:29;101492.69;;;23.50;100.00
51460;BME280;37534;39.772;2.718;2022-07-05T03:44:54;101494.38;;;23.51;100.00
51460;BME280;37534;39.772;2.718;2022-07-05T03:47:20;101499.00;;;23.48;100.00
51460;BME280;37534;39.772;2.718;2022-07-05T03:49:46;101496.56;;;23.45;100.00
51460;BME280;37534;39.772;2.718;2022-07-05T03:52:11;101516.28;;;23.52;100.00
51460;BME280;37534;39.772;2.718;2022-07-05T03:54:37;101500.91;;;23.46;100.00
51460;BME280;37534;39.772;2.718;2022-07-05T03:57:02;101513.44;;;23.55;100.00
51460;BME280;37534;39.772;2.718;2022-07-05T03:59:28;101516.06;;;23.55;100.00
51460;BME280;37534;39.772;2.718;2022-07-05T04:01:54;101518.84;;;23.66;100.00
51460;BME280;37534;39.772;2.718;2022-07-05T04:04:19;101517.75;;;23.69;100.00
51460;BME280;37534;39.772;2.718;2022-07-05T04:06:45;101505.97;;;23.62;100.00
51460;BME280;37534;39.772;2.718;2022-07-05T04:09:10;101521.38;;;23.81;100.00
51460;BME280;37534;39.772;2.718;2022-07-05T04:11:36;101505.75;;;23.78;100.00
51460;BME280;37534;39.772;2.718;2022-07-05T04:14:02;101516.94;;;23.81;100.00
51460;BME280;37534;39.772;2.718;2022-07-05T04:16:28;101504.06;;;23.77;100.00
51460;BME280;37534;39.772;2.718;2022-07-05T04:18:53;101502.38;;;23.76;100.00
51460;BME280;37534;39.772;2.718;2022-07-05T04:21:19;101501.53;;;23.62;100.00
51460;BME280;37534;39.772;2.718;2022-07-05T04:23:44;101505.97;;;23.49;100.00
51460;BME280;37534;39.772;2.718;2022-07-05T04:26:10;101523.44;;;23.50;100.00
51460;BME280;37534;39.772;2.718;2022-07-05T04:28:35;101525.44;;;23.46;100.00
51460;BME280;37534;39.772;2.718;2022-07-05T04:31:01;101537.47;;;23.50;100.00
51460;BME280;37534;39.772;2.718;2022-07-05T04:33:27;101535.66;;;23.51;100.00
51460;BME280;37534;39.772;2.718;2022-07-05T04:35:52;101525.66;;;23.56;100.00
51460;BME280;37534;39.772;2.718;2022-07-05T04:38:18;101522.41;;;23.52;100.00
51460;BME280;37534;39.772;2.718;2022-07-05T04:40:43;101511.00;;;23.52;100.00
51460;BME280;37534;39.772;2.718;2022-07-05T04:43:09;101500.47;;;23.52;100.00
51460;BME280;37534;39.772;2.718;2022-07-05T04:45:34;101515.03;;;23.70;100.00
51460;BME280;37534;39.772;2.718;2022-07-05T04:48:00;101512.63;;;23.80;100.00
51460;BME280;37534;39.772;2.718;2022-07-05T04:50:26;101508.50;;;23.89;100.00
51460;BME280;37534;39.772;2.718;2022-07-05T04:52:51;101486.16;;;23.82;100.00
51460;BME280;37534;39.772;2.718;2022-07-05T04:55:17;101498.16;;;23.86;100.00
51460;BME280;37534;39.772;2.718;2022-07-05T04:57:42;101488.91;;;23.80;100.00
51460;BME280;37534;39.772;2.718;2022-07-05T05:00:10;101487.63;;;23.86;100.00
51460;BME280;37534;39.772;2.718;2022-07-05T05:02:36;101496.81;;;23.93;100.00
51460;BME280;37534;39.772;2.718;2022-07-05T05:05:02;101486.56;;;24.01;100.00
51460;BME280;37534;39.772;2.718;2022-07-05T05:07:28;101482.22;;;24.13;100.00
51460;BME280;37534;39.772;2.718;2022-07-05T05:09:54;101480.72;;;24.22;100.00
51460;BME280;37534;39.772;2.718;2022-07-05T05:12:20;101477.75;;;24.26;100.00
51460;BME280;37534;39.772;2.718;2022-07-05T05:14:46;101484.16;;;24.35;100.00
51460;BME280;37534;39.772;2.718;2022-07-05T05:17:14;101475.81;;;24.41;100.00
51460;BME280;37534;39.772;2.718;2022-07-05T05:19:40;101474.84;;;24.42;100.00
51460;BME280;37534;39.772;2.718;2022-07-05T05:22:05;101494.53;;;24.62;100.00
51460;BME280;37534;39.772;2.718;2022-07-05T05:24:31;101489.88;;;24.66;100.00
51460;BME280;37534;39.772;2.718;2022-07-05T05:27:02;101478.13;;;24.70;100.00
51460;BME280;37534;39.772;2.718;2022-07-05T05:29:28;101490.94;;;24.88;100.00
51460;BME280;37534;39.772;2.718;2022-07-05T05:31:54;101497.25;;;25.09;100.00
51460;BME280;37534;39.772;2.718;2022-07-05T05:34:20;101502.03;;;25.15;100.00
51460;BME280;37534;39.772;2.718;2022-07-05T05:36:45;101478.75;;;24.98;100.00
51460;BME280;37534;39.772;2.718;2022-07-05T05:39:12;101492.69;;;25.11;100.00
51460;BME280;37534;39.772;2.718;2022-07-05T05:41:37;101481.38;;;24.98;100.00
51460;BME280;37534;39.772;2.718;2022-07-05T05:44:03;101479.22;;;25.03;100.00
51460;BME280;37534;39.772;2.718;2022-07-05T05:46:29;101479.97;;;25.16;100.00
51460;BME280;37534;39.772;2.718;2022-07-05T05:48:54;101471.84;;;25.19;100.00
51460;BME280;37534;39.772;2.718;2022-07-05T05:51:20;101473.56;;;25.32;100.00
51460;BME280;37534;39.772;2.718;2022-07-05T05:53:46;101465.88;;;25.40;100.00
51460;BME280;37534;39.772;2.718;2022-07-05T05:56:14;101456.56;;;25.58;100.00
51460;BME280;37534;39.772;2.718;2022-07-05T05:58:40;101447.41;;;25.63;100.00
51460;BME280;37534;39.772;2.718;2022-07-05T06:01:05;101450.53;;;25.79;100.00
51460;BME280;37534;39.772;2.718;2022-07-05T06:03:31;101446.19;;;25.89;100.00
51460;BME280;37534;39.772;2.718;2022-07-05T06:05:56;101442.59;;;26.02;100.00
51460;BME280;37534;39.772;2.718;2022-07-05T06:08:22;101435.34;;;26.15;100.00
51460;BME280;37534;39.772;2.718;2022-07-05T06:10:48;101441.81;;;26.33;100.00
51460;BME280;37534;39.772;2.718;2022-07-05T06:13:14;101449.09;;;26.52;100.00
51460;BME280;37534;39.772;2.718;2022-07-05T06:15:40;101436.19;;;26.70;100.00
51460;BME280;37534;39.772;2.718;2022-07-05T06:18:07;101445.00;;;26.81;100.00
51460;BME280;37534;39.772;2.718;2022-07-05T06:20:35;101436.31;;;26.90;100.00
51460;BME280;37534;39.772;2.718;2022-07-05T06:23:01;101439.34;;;27.06;100.00
51460;BME280;37534;39.772;2.718;2022-07-05T06:25:27;101409.44;;;26.94;100.00
51460;BME280;37534;39.772;2.718;2022-07-05T06:27:55;101433.38;;;27.14;100.00
51460;BME280;37534;39.772;2.718;2022-07-05T06:30:22;101403.81;;;27.09;100.00
51460;BME280;37534;39.772;2.718;2022-07-05T06:32:48;101429.63;;;27.38;100.00
51460;BME280;37534;39.772;2.718;2022-07-05T06:35:15;101423.25;;;27.40;100.00
51460;BME280;37534;39.772;2.718;2022-07-05T06:37:45;101416.00;;;27.42;100.00
51460;BME280;37534;39.772;2.718;2022-07-05T06:40:12;101412.53;;;27.52;100.00
51460;BME280;37534;39.772;2.718;2022-07-05T06:42:38;101429.78;;;27.67;100.00
51460;BME280;37534;39.772;2.718;2022-07-05T06:45:07;101416.25;;;27.70;100.00
51460;BME280;37534;39.772;2.718;2022-07-05T06:47:34;101417.88;;;27.92;100.00
51460;BME280;37534;39.772;2.718;2022-07-05T06:50:00;101419.69;;;28.01;100.00
51460;BME280;37534;39.772;2.718;2022-07-05T06:52:28;101407.28;;;28.12;100.00
51460;BME280;37534;39.772;2.718;2022-07-05T06:54:54;101411.19;;;28.17;100.00
51460;BME280;37534;39.772;2.718;2022-07-05T06:57:21;101384.41;;;28.11;100.00
51460;BME280;37534;39.772;2.718;2022-07-05T06:59:47;101407.59;;;28.28;100.00
51460;BME280;37534;39.772;2.718;2022-07-05T07:02:12;101395.59;;;28.34;100.00
51460;BME280;37534;39.772;2.718;2022-07-05T07:04:38;101393.34;;;28.39;100.00
51460;BME280;37534;39.772;2.718;2022-07-05T07:07:04;101389.56;;;28.51;100.00
51460;BME280;37534;39.772;2.718;2022-07-05T07:09:49;101390.56;;;28.70;100.00
51460;BME280;37534;39.772;2.718;2022-07-05T07:12:14;101402.28;;;28.77;100.00
51460;BME280;37534;39.772;2.718;2022-07-05T07:14:40;101388.56;;;28.81;100.00
51460;BME280;37534;39.772;2.718;2022-07-05T07:17:06;101402.53;;;29.03;100.00
51460;BME280;37534;39.772;2.718;2022-07-05T07:19:31;101392.13;;;29.10;100.00
51460;BME280;37534;39.772;2.718;2022-07-05T07:21:57;101388.34;;;29.22;100.00
51460;BME280;37534;39.772;2.718;2022-07-05T07:24:22;101395.16;;;29.34;100.00
51460;BME280;37534;39.772;2.718;2022-07-05T07:26:48;101397.34;;;29.49;100.00
51460;BME280;37534;39.772;2.718;2022-07-05T07:29:32;101399.50;;;29.63;100.00
51460;BME280;37534;39.772;2.718;2022-07-05T07:31:58;101389.94;;;29.70;97.53
51460;BME280;37534;39.772;2.718;2022-07-05T07:34:25;101387.41;;;29.79;96.86
51460;BME280;37534;39.772;2.718;2022-07-05T07:36:51;101389.94;;;29.98;95.34
51460;BME280;37534;39.772;2.718;2022-07-05T07:39:17;101381.66;;;30.01;94.22
51460;BME280;37534;39.772;2.718;2022-07-05T07:41:44;101383.03;;;30.05;93.54
51460;BME280;37534;39.772;2.718;2022-07-05T07:44:10;101393.63;;;30.15;89.60
51460;BME280;37534;39.772;2.718;2022-07-05T07:46:36;101391.53;;;30.27;89.05
51460;BME280;37534;39.772;2.718;2022-07-05T07:49:02;101378.72;;;30.22;90.65
51460;BME280;37534;39.772;2.718;2022-07-05T07:51:27;101378.78;;;30.12;91.86
51460;BME280;37534;39.772;2.718;2022-07-05T07:53:54;101350.72;;;30.00;91.25
51460;BME280;37534;39.772;2.718;2022-07-05T07:56:19;101367.16;;;30.13;91.15
51460;BME280;37534;39.772;2.718;2022-07-05T07:58:46;101369.81;;;30.13;90.47
51460;BME280;37534;39.772;2.718;2022-07-05T08:01:12;101360.00;;;30.14;89.48
51460;BME280;37534;39.772;2.718;2022-07-05T08:03:39;101353.69;;;30.33;89.79
51460;BME280;37534;39.772;2.718;2022-07-05T08:06:04;101369.91;;;30.66;88.25
51460;BME280;37534;39.772;2.718;2022-07-05T08:08:30;101373.41;;;30.84;87.67
51460;BME280;37534;39.772;2.718;2022-07-05T08:10:55;101367.19;;;30.84;85.34
51460;BME280;37534;39.772;2.718;2022-07-05T08:13:21;101360.13;;;30.93;85.30
51460;BME280;37534;39.772;2.718;2022-07-05T08:15:46;101346.94;;;30.91;84.04
51460;BME280;37534;39.772;2.718;2022-07-05T08:18:12;101358.88;;;31.05;85.44
51460;BME280;37534;39.772;2.718;2022-07-05T08:20:56;101354.81;;;31.27;85.66
51460;BME280;37534;39.772;2.718;2022-07-05T08:23:40;101355.09;;;31.50;83.75
51460;BME280;37534;39.772;2.718;2022-07-05T08:26:06;101357.81;;;31.75;82.58
51460;BME280;37534;39.772;2.718;2022-07-05T08:28:31;101346.03;;;31.86;81.17
51460;BME280;37534;39.772;2.718;2022-07-05T08:30:56;101365.00;;;31.91;79.99
51460;BME280;37534;39.772;2.718;2022-07-05T08:33:22;101366.09;;;32.14;80.74
51460;BME280;37534;39.772;2.718;2022-07-05T08:35:49;101358.56;;;32.26;79.62
51460;BME280;37534;39.772;2.718;2022-07-05T08:38:15;101373.41;;;32.37;77.81
51460;BME280;37534;39.772;2.718;2022-07-05T08:40:43;101361.59;;;32.48;74.69
51460;BME280;37534;39.772;2.718;2022-07-05T08:43:11;101368.56;;;32.40;72.50
51460;BME280;37534;39.772;2.718;2022-07-05T08:45:38;101332.19;;;32.31;73.42
51460;BME280;37534;39.772;2.718;2022-07-05T08:48:05;101369.56;;;32.72;71.69
51460;BME280;37534;39.772;2.718;2022-07-05T08:50:33;101370.06;;;32.76;67.96
51460;BME280;37534;39.772;2.718;2022-07-05T08:53:01;101358.56;;;32.75;68.97
51460;BME280;37534;39.772;2.718;2022-07-05T08:55:27;101353.22;;;32.75;70.18
51460;BME280;37534;39.772;2.718;2022-07-05T08:57:52;101331.72;;;32.61;68.70
51460;BME280;37534;39.772;2.718;2022-07-05T09:00:18;101357.19;;;32.88;67.63
51460;BME280;37534;39.772;2.718;2022-07-05T09:02:43;101358.50;;;33.00;67.18
51460;BME280;37534;39.772;2.718;2022-07-05T09:05:12;101364.66;;;33.09;66.31
51460;BME280;37534;39.772;2.718;2022-07-05T09:07:44;101351.47;;;33.15;67.19
51460;BME280;37534;39.772;2.718;2022-07-05T09:10:11;101347.50;;;33.34;65.70
51460;BME280;37534;39.772;2.718;2022-07-05T09:12:37;101340.59;;;33.48;64.80
51460;BME280;37534;39.772;2.718;2022-07-05T09:15:03;101368.72;;;33.44;63.69
51460;BME280;37534;39.772;2.718;2022-07-05T09:17:30;101365.81;;;33.54;63.75
51460;BME280;37534;39.772;2.718;2022-07-05T09:22:46;101375.44;;;33.71;63.21
51460;BME280;37534;39.772;2.718;2022-07-05T09:25:30;101364.25;;;33.68;63.44
51460;BME280;37534;39.772;2.718;2022-07-05T09:28:05;101340.81;;;33.70;62.38
51460;BME280;37534;39.772;2.718;2022-07-05T09:30:37;101342.22;;;33.89;61.23
51460;BME280;37534;39.772;2.718;2022-07-05T09:33:04;101371.53;;;34.05;61.13
51460;BME280;37534;39.772;2.718;2022-07-05T09:35:31;101365.09;;;34.15;60.14
51460;BME280;37534;39.772;2.718;2022-07-05T09:37:57;101349.34;;;33.97;59.86
51460;BME280;37534;39.772;2.718;2022-07-05T09:40:22;101335.72;;;33.83;59.26
51460;BME280;37534;39.772;2.718;2022-07-05T09:42:48;101368.38;;;34.25;60.09
51460;BME280;37534;39.772;2.718;2022-07-05T09:45:24;101373.50;;;34.35;57.97
51460;BME280;37534;39.772;2.718;2022-07-05T09:47:50;101384.53;;;34.40;58.79
51460;BME280;37534;39.772;2.718;2022-07-05T09:50:33;101379.00;;;34.56;58.07
51460;BME280;37534;39.772;2.718;2022-07-05T09:52:58;101371.53;;;34.28;57.19
51460;BME280;37534;39.772;2.718;2022-07-05T09:55:24;101354.94;;;34.10;57.53
51460;BME280;37534;39.772;2.718;2022-07-05T09:57:49;101387.31;;;34.23;57.44
51460;BME280;37534;39.772;2.718;2022-07-05T10:00:18;101396.41;;;34.14;57.69
51460;BME280;37534;39.772;2.718;2022-07-05T10:05:19;101401.72;;;34.22;58.46
51460;BME280;37534;39.772;2.718;2022-07-05T10:07:50;101397.50;;;34.28;58.17
51460;BME280;37534;39.772;2.718;2022-07-05T10:10:17;101416.41;;;34.50;57.90
51460;BME280;37534;39.772;2.718;2022-07-05T10:12:44;101421.22;;;34.54;56.10
51460;BME280;37534;39.772;2.718;2022-07-05T10:15:12;101426.78;;;34.67;56.20
51460;BME280;37534;39.772;2.718;2022-07-05T10:17:45;101431.75;;;34.79;54.72
51460;BME280;37534;39.772;2.718;2022-07-05T10:20:19;101436.19;;;34.72;55.55
51460;BME280;37534;39.772;2.718;2022-07-05T10:22:46;101443.31;;;34.56;55.06
51460;BME280;37534;39.772;2.718;2022-07-05T10:25:13;101448.59;;;34.64;54.65
51460;BME280;37534;39.772;2.718;2022-07-05T10:27:38;101409.81;;;34.37;53.98
51460;BME280;37534;39.772;2.718;2022-07-05T10:30:05;101432.66;;;34.25;54.27
51460;BME280;37534;39.772;2.718;2022-07-05T10:32:34;101433.31;;;34.27;54.48
51460;BME280;37534;39.772;2.718;2022-07-05T10:35:00;101439.22;;;34.22;54.58
51460;BME280;37534;39.772;2.718;2022-07-05T10:37:30;101437.53;;;34.21;54.67
51460;BME280;37534;39.772;2.718;2022-07-05T10:39:57;101408.00;;;34.06;55.12
51460;BME280;37534;39.772;2.718;2022-07-05T10:42:24;101442.81;;;34.06;55.37
51460;BME280;37534;39.772;2.718;2022-07-05T10:44:50;101450.81;;;34.38;54.81
51460;BME280;37534;39.772;2.718;2022-07-05T10:47:16;101444.97;;;34.57;54.44
51460;BME280;37534;39.772;2.718;2022-07-05T10:49:43;101436.41;;;34.39;53.84
51460;BME280;37534;39.772;2.718;2022-07-05T10:52:24;101442.41;;;34.41;52.99
51460;BME280;37534;39.772;2.718;2022-07-05T10:57:42;101473.22;;;34.45;54.43
51460;BME280;37534;39.772;2.718;2022-07-05T11:00:09;101462.25;;;34.55;53.94
51460;BME280;37534;39.772;2.718;2022-07-05T11:02:36;101460.28;;;34.72;53.97
51460;BME280;37534;39.772;2.718;2022-07-05T11:05:02;101435.09;;;34.58;52.46
51460;BME280;37534;39.772;2.718;2022-07-05T11:07:58;101434.25;;;34.57;53.42
51460;BME280;37534;39.772;2.718;2022-07-05T11:10:24;101450.81;;;34.84;52.32
51460;BME280;37534;39.772;2.718;2022-07-05T11:12:49;101431.06;;;34.77;53.13
51460;BME280;37534;39.772;2.718;2022-07-05T11:15:15;101456.88;;;34.93;53.64
51460;BME280;37534;39.772;2.718;2022-07-05T11:17:42;101456.72;;;34.94;53.64
51460;BME280;37534;39.772;2.718;2022-07-05T11:20:15;101464.09;;;34.77;53.94
51460;BME280;37534;39.772;2.718;2022-07-05T11:23:11;101465.03;;;34.61;54.23
51460;BME280;37534;39.772;2.718;2022-07-05T11:25:39;101467.94;;;34.75;53.31
51460;BME280;37534;39.772;2.718;2022-07-05T11:28:07;101483.53;;;34.94;53.09
51460;BME280;37534;39.772;2.718;2022-07-05T11:33:28;101503.22;;;35.01;52.39
51460;BME280;37534;39.772;2.718;2022-07-05T11:35:55;101497.03;;;35.16;52.71
51460;BME280;37534;39.772;2.718;2022-07-05T11:38:20;101494.72;;;34.98;52.07
51460;BME280;37534;39.772;2.718;2022-07-05T11:40:47;101498.94;;;34.77;53.25
51460;BME280;37534;39.772;2.718;2022-07-05T11:43:12;101514.75;;;34.87;53.79
51460;BME280;37534;39.772;2.718;2022-07-05T11:45:38;101499.13;;;34.67;55.20
51460;BME280;37534;39.772;2.718;2022-07-05T11:48:04;101503.91;;;34.57;55.12
51460;BME280;37534;39.772;2.718;2022-07-05T11:50:32;101510.50;;;34.23;56.15
51460;BME280;37534;39.772;2.718;2022-07-05T11:52:59;101512.66;;;34.28;56.44
51460;BME280;37534;39.772;2.718;2022-07-05T11:55:26;101507.75;;;34.40;56.98
51460;BME280;37534;39.772;2.718;2022-07-05T11:57:53;101507.25;;;34.59;56.04
51460;BME280;37534;39.772;2.718;2022-07-05T12:00:33;101501.91;;;34.36;55.96
51460;BME280;37534;39.772;2.718;2022-07-05T12:03:00;101515.41;;;34.43;56.08
51460;BME280;37534;39.772;2.718;2022-07-05T12:05:32;101506.06;;;34.39;56.84
51460;BME280;37534;39.772;2.718;2022-07-05T12:07:58;101508.91;;;34.37;56.35
51460;BME280;37534;39.772;2.718;2022-07-05T12:10:24;101508.22;;;34.43;56.67
51460;BME280;37534;39.772;2.718;2022-07-05T12:13:08;101519.59;;;34.45;55.96
51460;BME280;37534;39.772;2.718;2022-07-05T12:15:36;101527.28;;;34.49;56.51
51460;BME280;37534;39.772;2.718;2022-07-05T12:18:03;101514.41;;;34.44;56.83
51460;BME280;37534;39.772;2.718;2022-07-05T12:20:36;101512.19;;;34.24;56.44
51460;BME280;37534;39.772;2.718;2022-07-05T12:23:03;101517.50;;;34.33;56.97
51460;BME280;37534;39.772;2.718;2022-07-05T12:25:30;101502.50;;;34.15;56.92
51460;BME280;37534;39.772;2.718;2022-07-05T12:27:57;101527.94;;;34.19;57.48
51460;BME280;37534;39.772;2.718;2022-07-05T12:30:24;101518.75;;;34.14;57.96
51460;BME280;37534;39.772;2.718;2022-07-05T12:32:53;101534.25;;;34.26;57.08
51460;BME280;37534;39.772;2.718;2022-07-05T12:38:09;101509.84;;;34.21;56.80
51460;BME280;37534;39.772;2.718;2022-07-05T12:40:38;101516.22;;;34.12;57.11
51460;BME280;37534;39.772;2.718;2022-07-05T12:43:06;101539.28;;;34.30;57.94
51460;BME280;37534;39.772;2.718;2022-07-05T12:45:32;101515.75;;;34.08;58.36
51460;BME280;37534;39.772;2.718;2022-07-05T12:48:00;101533.91;;;34.30;57.28
51460;BME280;37534;39.772;2.718;2022-07-05T12:50:28;101532.19;;;34.37;57.23
51460;BME280;37534;39.772;2.718;2022-07-05T12:53:01;101524.81;;;34.39;57.58
51460;BME280;37534;39.772;2.718;2022-07-05T12:56:00;101519.03;;;34.50;56.81